sensor_id;sensor_type;location;lat;lon;timestamp;pressure;altitude;pressure_sealevel;temperature;humidity
78673;BME280;67988;60.086;30.354;2023-03-23T00:01:47;99621.72;;;5.97;77.86
78673;BME280;67988;60.086;30.354;2023-03-23T00:04:15;99606.59;;;5.99;77.80
78673;BME280;67988;60.086;30.354;2023-03-23T00:06:43;99622.69;;;6.07;77.78
78673;BME280;67988;60.086;30.354;2023-03-23T00:09:13;99621.34;;;6.02;77.78
78673;BME280;67988;60.086;30.354;2023-03-23T00:11:41;99605.28;;;6.05;77.64
78673;BME280;67988;60.086;30.354;2023-03-23T00:14:09;99602.50;;;6.06;77.52
78673;BME280;67988;60.086;30.354;2023-03-23T00:16:39;99600.84;;;6.05;77.56
78673;BME280;67988;60.086;30.354;2023-03-23T00:19:10;99602.16;;;6.00;77.63
78673;BME280;67988;60.086;30.354;2023-03-23T00:21:39;99571.25;;;5.78;77.66
78673;BME280;67988;60.086;30.354;2023-03-23T00:24:09;99587.97;;;6.01;77.77
78673;BME280;67988;60.086;30.354;2023-03-23T00:26:39;99595.56;;;6.05;77.84
78673;BME280;67988;60.086;30.354;2023-03-23T00:29:08;99587.88;;;6.02;78.19
78673;BME280;67988;60.086;30.354;2023-03-23T00:31:40;99549.16;;;5.79;78.29
78673;BME280;67988;60.086;30.354;2023-03-23T00:34:13;99575.97;;;5.97;78.66
78673;BME280;67988;60.086;30.354;2023-03-23T00:36:43;99574.91;;;5.99;78.84
78673;BME280;67988;60.086;30.354;2023-03-23T00:39:11;99568.91;;;5.97;78.96
78673;BME280;67988;60.086;30.354;2023-03-23T00:41:43;99526.00;;;5.71;79.12
78673;BME280;67988;60.086;30.354;2023-03-23T00:44:10;99557.69;;;5.82;79.92
78673;BME280;67988;60.086;30.354;2023-03-23T00:46:42;99555.06;;;5.82;80.39
78673;BME280;67988;60.086;30.354;2023-03-23T00:49:11;99559.50;;;5.82;80.21
78673;BME280;67988;60.086;30.354;2023-03-23T00:51:39;99558.53;;;5.83;80.28
78673;BME280;67988;60.086;30.354;2023-03-23T00:54:07;99538.38;;;5.82;79.85
78673;BME280;67988;60.086;30.354;2023-03-23T00:56:35;99519.63;;;5.63;80.28
78673;BME280;67988;60.086;30.354;2023-03-23T00:59:03;99543.22;;;5.88;80.17
78673;BME280;67988;60.086;30.354;2023-03-23T01:01:30;99547.25;;;5.81;80.44
78673;BME280;67988;60.086;30.354;2023-03-23T01:03:58;99523.13;;;5.85;80.07
78673;BME280;67988;60.086;30.354;2023-03-23T01:06:27;99530.97;;;5.87;80.04
78673;BME280;67988;60.086;30.354;2023-03-23T01:08:56;99535.94;;;5.79;80.04
78673;BME280;67988;60.086;30.354;2023-03-23T01:11:24;99527.25;;;5.89;79.88
78673;BME280;67988;60.086;30.354;2023-03-23T01:13:51;99487.97;;;5.85;80.08
78673;BME280;67988;60.086;30.354;2023-03-23T01:16:21;99506.75;;;5.93;79.78
78673;BME280;67988;60.086;30.354;2023-03-23T01:18:48;99502.31;;;5.94;79.61
78673;BME280;67988;60.086;30.354;2023-03-23T01:21:16;99494.59;;;5.91;79.91
78673;BME280;67988;60.086;30.354;2023-03-23T01:23:44;99493.28;;;5.96;79.68
78673;BME280;67988;60.086;30.354;2023-03-23T01:26:13;99482.03;;;5.94;79.62
78673;BME280;67988;60.086;30.354;2023-03-23T01:28:40;99491.38;;;5.98;79.63
78673;BME280;67988;60.086;30.354;2023-03-23T01:31:09;99478.38;;;6.06;79.17
78673;BME280;67988;60.086;30.354;2023-03-23T01:33:39;99482.72;;;6.07;79.14
78673;BME280;67988;60.086;30.354;2023-03-23T01:36:10;99482.13;;;6.04;79.28
78673;BME280;67988;60.086;30.354;2023-03-23T01:38:38;99482.72;;;6.07;79.09
78673;BME280;67988;60.086;30.354;2023-03-23T01:41:05;99479.22;;;6.07;78.98
78673;BME280;67988;60.086;30.354;2023-03-23T01:43:32;99480.56;;;6.12;78.91
78673;BME280;67988;60.086;30.354;2023-03-23T01:45:59;99468.44;;;6.10;78.81
78673;BME280;67988;60.086;30.354;2023-03-23T01:48:28;99457.25;;;6.06;78.99
78673;BME280;67988;60.086;30.354;2023-03-23T01:51:01;99457.63;;;6.13;78.62
78673;BME280;67988;60.086;30.354;2023-03-23T01:53:34;99435.19;;;6.07;78.68
78673;BME280;67988;60.086;30.354;2023-03-23T01:56:04;99439.03;;;6.14;78.56
78673;BME280;67988;60.086;30.354;2023-03-23T01:58:32;99441.41;;;6.17;78.70
78673;BME280;67988;60.086;30.354;2023-03-23T02:01:03;99428.34;;;6.16;78.77
78673;BME280;67988;60.086;30.354;2023-03-23T02:03:32;99436.59;;;6.22;78.84
78673;BME280;67988;60.086;30.354;2023-03-23T02:06:02;99426.91;;;6.12;79.18
78673;BME280;67988;60.086;30.354;2023-03-23T02:08:36;99425.09;;;6.12;79.21
78673;BME280;67988;60.086;30.354;2023-03-23T02:11:12;99425.47;;;6.08;79.77
78673;BME280;67988;60.086;30.354;2023-03-23T02:13:41;99415.03;;;6.06;79.61
78673;BME280;67988;60.086;30.354;2023-03-23T02:16:14;99408.66;;;6.09;80.00
78673;BME280;67988;60.086;30.354;2023-03-23T02:18:53;99411.19;;;6.10;79.94
78673;BME280;67988;60.086;30.354;2023-03-23T02:21:46;99409.25;;;6.12;79.96
78673;BME280;67988;60.086;30.354;2023-03-23T02:24:36;99362.03;;;5.87;79.93
78673;BME280;67988;60.086;30.354;2023-03-23T02:27:12;99401.50;;;6.00;80.15
78673;BME280;67988;60.086;30.354;2023-03-23T02:29:58;99388.88;;;6.03;80.60
78673;BME280;67988;60.086;30.354;2023-03-23T02:32:54;99388.88;;;6.03;80.37
78673;BME280;67988;60.086;30.354;2023-03-23T02:35:30;99379.38;;;6.01;80.37
78673;BME280;67988;60.086;30.354;2023-03-23T02:38:04;99373.38;;;6.10;80.15
78673;BME280;67988;60.086;30.354;2023-03-23T02:40:37;99371.94;;;6.06;80.13
78673;BME280;67988;60.086;30.354;2023-03-23T02:43:07;99353.31;;;6.07;80.21
78673;BME280;67988;60.086;30.354;2023-03-23T02:45:36;99364.13;;;6.15;80.10
78673;BME280;67988;60.086;30.354;2023-03-23T02:48:05;99354.53;;;6.14;80.06
78673;BME280;67988;60.086;30.354;2023-03-23T02:50:36;99366.53;;;6.07;80.04
78673;BME280;67988;60.086;30.354;2023-03-23T02:53:08;99343.97;;;6.14;80.16
78673;BME280;67988;60.086;30.354;2023-03-23T02:55:39;99344.69;;;6.16;79.86
78673;BME280;67988;60.086;30.354;2023-03-23T02:58:12;99337.44;;;6.18;80.03
78673;BME280;67988;60.086;30.354;2023-03-23T03:00:42;99334.69;;;6.20;79.97
78673;BME280;67988;60.086;30.354;2023-03-23T03:03:13;99329.03;;;6.24;79.56
78673;BME280;67988;60.086;30.354;2023-03-23T03:05:52;99337.53;;;6.28;79.60
78673;BME280;67988;60.086;30.354;2023-03-23T03:08:28;99337.22;;;6.21;79.96
78673;BME280;67988;60.086;30.354;2023-03-23T03:10:59;99311.88;;;6.19;79.93
78673;BME280;67988;60.086;30.354;2023-03-23T03:13:36;99321.81;;;6.26;79.77
78673;BME280;67988;60.086;30.354;2023-03-23T03:16:13;99320.16;;;6.25;79.86
78673;BME280;67988;60.086;30.354;2023-03-23T03:18:45;99304.28;;;6.25;79.84
78673;BME280;67988;60.086;30.354;2023-03-23T03:21:16;99297.91;;;6.28;79.88
78673;BME280;67988;60.086;30.354;2023-03-23T03:23:46;99297.44;;;6.23;79.77
78673;BME280;67988;60.086;30.354;2023-03-23T03:26:17;99287.72;;;6.23;79.82
78673;BME280;67988;60.086;30.354;2023-03-23T03:28:54;99285.81;;;6.25;79.65
78673;BME280;67988;60.086;30.354;2023-03-23T03:31:23;99283.03;;;6.27;79.84
78673;BME280;67988;60.086;30.354;2023-03-23T03:33:54;99305.47;;;6.33;79.53
78673;BME280;67988;60.086;30.354;2023-03-23T03:36:27;99252.59;;;6.12;79.59
78673;BME280;67988;60.086;30.354;2023-03-23T03:39:02;99267.88;;;6.29;79.63
78673;BME280;67988;60.086;30.354;2023-03-23T03:41:33;99257.25;;;6.19;79.59
78673;BME280;67988;60.086;30.354;2023-03-23T03:44:00;99272.84;;;6.22;79.95
78673;BME280;67988;60.086;30.354;2023-03-23T03:46:28;99261.66;;;6.30;79.91
78673;BME280;67988;60.086;30.354;2023-03-23T03:48:56;99271.38;;;6.29;79.82
78673;BME280;67988;60.086;30.354;2023-03-23T03:51:26;99259.50;;;6.24;79.94
78673;BME280;67988;60.086;30.354;2023-03-23T03:53:54;99259.84;;;6.30;80.09
78673;BME280;67988;60.086;30.354;2023-03-23T03:56:22;99272.34;;;6.28;80.00
78673;BME280;67988;60.086;30.354;2023-03-23T03:59:03;99250.25;;;6.29;79.99
78673;BME280;67988;60.086;30.354;2023-03-23T04:01:45;99250.00;;;6.33;80.06
78673;BME280;67988;60.086;30.354;2023-03-23T04:04:12;99242.31;;;6.29;80.01
78673;BME280;67988;60.086;30.354;2023-03-23T04:06:40;99229.38;;;6.26;80.33
78673;BME280;67988;60.086;30.354;2023-03-23T04:09:07;99234.97;;;6.33;80.00
78673;BME280;67988;60.086;30.354;2023-03-23T04:11:35;99214.66;;;6.34;80.15
78673;BME280;67988;60.086;30.354;2023-03-23T04:14:25;99243.72;;;6.34;80.28
78673;BME280;67988;60.086;30.354;2023-03-23T04:16:54;99242.75;;;6.35;80.16
78673;BME280;67988;60.086;30.354;2023-03-23T04:19:23;99236.41;;;6.37;80.29
78673;BME280;67988;60.086;30.354;2023-03-23T04:21:51;99242.66;;;6.36;80.18
78673;BME280;67988;60.086;30.354;2023-03-23T04:24:18;99255.13;;;6.34;80.26
78673;BME280;67988;60.086;30.354;2023-03-23T04:26:47;99235.56;;;6.37;80.54
78673;BME280;67988;60.086;30.354;2023-03-23T04:29:22;99237.59;;;6.33;80.50
78673;BME280;67988;60.086;30.354;2023-03-23T04:32:09;99238.44;;;6.34;80.56
78673;BME280;67988;60.086;30.354;2023-03-23T04:34:41;99237.94;;;6.40;80.42
78673;BME280;67988;60.086;30.354;2023-03-23T04:37:10;99231.56;;;6.42;80.45
78673;BME280;67988;60.086;30.354;2023-03-23T04:39:39;99206.09;;;6.41;80.33
78673;BME280;67988;60.086;30.354;2023-03-23T04:42:07;99228.09;;;6.42;80.35
78673;BME280;67988;60.086;30.354;2023-03-23T04:44:43;99225.44;;;6.42;80.36
78673;BME280;67988;60.086;30.354;2023-03-23T04:47:19;99215.72;;;6.42;80.33
78673;BME280;67988;60.086;30.354;2023-03-23T04:49:53;99223.50;;;6.44;80.51
78673;BME280;67988;60.086;30.354;2023-03-23T04:52:31;99220.84;;;6.44;80.59
78673;BME280;67988;60.086;30.354;2023-03-23T04:55:02;99218.91;;;6.46;80.94
78673;BME280;67988;60.086;30.354;2023-03-23T04:57:29;99211.28;;;6.43;81.03
78673;BME280;67988;60.086;30.354;2023-03-23T05:00:33;99221.84;;;6.43;81.14
78673;BME280;67988;60.086;30.354;2023-03-23T05:03:02;99217.63;;;6.40;81.39
78673;BME280;67988;60.086;30.354;2023-03-23T05:05:31;99211.78;;;6.37;81.83
78673;BME280;67988;60.086;30.354;2023-03-23T05:08:05;99217.06;;;6.37;82.12
78673;BME280;67988;60.086;30.354;2023-03-23T05:10:36;99178.59;;;6.02;82.63
78673;BME280;67988;60.086;30.354;2023-03-23T05:13:07;99204.63;;;6.27;83.08
78673;BME280;67988;60.086;30.354;2023-03-23T05:15:34;99209.66;;;6.30;83.40
78673;BME280;67988;60.086;30.354;2023-03-23T05:18:03;99216.34;;;6.35;83.29
78673;BME280;67988;60.086;30.354;2023-03-23T05:20:32;99218.53;;;6.29;83.36
78673;BME280;67988;60.086;30.354;2023-03-23T05:23:07;99177.88;;;6.00;83.77
78673;BME280;67988;60.086;30.354;2023-03-23T05:25:35;99218.09;;;6.24;84.21
78673;BME280;67988;60.086;30.354;2023-03-23T05:28:14;99227.94;;;6.22;84.34
78673;BME280;67988;60.086;30.354;2023-03-23T05:30:50;99224.22;;;6.25;84.55
78673;BME280;67988;60.086;30.354;2023-03-23T05:33:18;99215.72;;;6.21;84.33
78673;BME280;67988;60.086;30.354;2023-03-23T05:36:11;99226.34;;;6.31;84.40
78673;BME280;67988;60.086;30.354;2023-03-23T05:39:00;99223.81;;;6.29;84.34
78673;BME280;67988;60.086;30.354;2023-03-23T05:41:43;99212.69;;;6.26;84.33
78673;BME280;67988;60.086;30.354;2023-03-23T05:44:13;99232.59;;;6.30;84.43
78673;BME280;67988;60.086;30.354;2023-03-23T05:46:50;99230.91;;;6.29;84.81
78673;BME280;67988;60.086;30.354;2023-03-23T05:49:17;99229.69;;;6.33;84.82
78673;BME280;67988;60.086;30.354;2023-03-23T05:51:46;99231.13;;;6.37;84.68
78673;BME280;67988;60.086;30.354;2023-03-23T05:54:15;99231.97;;;6.38;84.74
78673;BME280;67988;60.086;30.354;2023-03-23T05:56:44;99235.81;;;6.34;84.82
78673;BME280;67988;60.086;30.354;2023-03-23T05:59:29;99234.97;;;6.33;84.92
78673;BME280;67988;60.086;30.354;2023-03-23T06:01:57;99253.59;;;6.32;85.17
78673;BME280;67988;60.086;30.354;2023-03-23T06:04:25;99238.66;;;6.42;85.08
78673;BME280;67988;60.086;30.354;2023-03-23T06:07:15;99254.91;;;6.37;84.84
78673;BME280;67988;60.086;30.354;2023-03-23T06:09:52;99257.66;;;6.36;84.81
78673;BME280;67988;60.086;30.354;2023-03-23T06:12:40;99271.31;;;6.41;84.70
78673;BME280;67988;60.086;30.354;2023-03-23T06:15:30;99266.38;;;6.47;84.38
78673;BME280;67988;60.086;30.354;2023-03-23T06:18:09;99253.59;;;6.52;84.08
78673;BME280;67988;60.086;30.354;2023-03-23T06:21:01;99271.13;;;6.53;83.79
78673;BME280;67988;60.086;30.354;2023-03-23T06:23:46;99282.41;;;6.55;83.67
78673;BME280;67988;60.086;30.354;2023-03-23T06:26:18;99279.00;;;6.64;83.59
78673;BME280;67988;60.086;30.354;2023-03-23T06:28:55;99278.31;;;6.72;83.14
78673;BME280;67988;60.086;30.354;2023-03-23T06:31:24;99280.72;;;6.75;82.80
78673;BME280;67988;60.086;30.354;2023-03-23T06:33:51;99290.13;;;6.89;82.07
78673;BME280;67988;60.086;30.354;2023-03-23T06:36:24;99288.50;;;6.97;81.81
78673;BME280;67988;60.086;30.354;2023-03-23T06:39:10;99282.81;;;7.02;81.43
78673;BME280;67988;60.086;30.354;2023-03-23T06:41:58;99290.06;;;7.09;80.97
78673;BME280;67988;60.086;30.354;2023-03-23T06:44:29;99291.94;;;7.19;80.59
78673;BME280;67988;60.086;30.354;2023-03-23T06:46:56;99289.97;;;7.21;80.21
78673;BME280;67988;60.086;30.354;2023-03-23T06:49:33;99296.63;;;7.36;79.86
78673;BME280;67988;60.086;30.354;2023-03-23T06:52:19;99285.00;;;7.27;79.39
78673;BME280;67988;60.086;30.354;2023-03-23T06:54:46;99301.06;;;7.35;79.21
78673;BME280;67988;60.086;30.354;2023-03-23T06:57:14;99302.75;;;7.36;79.13
78673;BME280;67988;60.086;30.354;2023-03-23T06:59:44;99309.56;;;7.39;78.81
78673;BME280;67988;60.086;30.354;2023-03-23T07:02:12;99312.22;;;7.48;78.48
78673;BME280;67988;60.086;30.354;2023-03-23T07:04:40;99313.38;;;7.55;78.16
78673;BME280;67988;60.086;30.354;2023-03-23T07:07:14;99322.19;;;7.66;77.86
78673;BME280;67988;60.086;30.354;2023-03-23T07:10:05;99324.53;;;7.59;77.63
78673;BME280;67988;60.086;30.354;2023-03-23T07:12:35;99325.13;;;7.72;77.48
78673;BME280;67988;60.086;30.354;2023-03-23T07:15:05;99315.78;;;7.68;76.91
78673;BME280;67988;60.086;30.354;2023-03-23T07:17:33;99329.06;;;7.87;76.71
78673;BME280;67988;60.086;30.354;2023-03-23T07:20:16;99336.75;;;7.90;76.22
78673;BME280;67988;60.086;30.354;2023-03-23T07:22:44;99349.28;;;7.88;75.93
78673;BME280;67988;60.086;30.354;2023-03-23T07:25:21;99353.22;;;8.04;75.48
78673;BME280;67988;60.086;30.354;2023-03-23T07:27:53;99346.66;;;8.08;75.00
78673;BME280;67988;60.086;30.354;2023-03-23T07:30:21;99347.81;;;8.24;74.64
78673;BME280;67988;60.086;30.354;2023-03-23T07:32:48;99361.66;;;8.37;73.94
78673;BME280;67988;60.086;30.354;2023-03-23T07:35:15;99352.59;;;8.30;73.31
78673;BME280;67988;60.086;30.354;2023-03-23T07:37:50;99353.69;;;8.28;73.37
78673;BME280;67988;60.086;30.354;2023-03-23T07:40:19;99371.28;;;8.29;73.02
78673;BME280;67988;60.086;30.354;2023-03-23T07:42:54;99368.03;;;8.25;72.77
78673;BME280;67988;60.086;30.354;2023-03-23T07:45:35;99340.00;;;8.23;72.97
78673;BME280;67988;60.086;30.354;2023-03-23T07:48:03;99355.38;;;8.29;72.63
78673;BME280;67988;60.086;30.354;2023-03-23T07:50:30;99365.16;;;8.38;72.04
78673;BME280;67988;60.086;30.354;2023-03-23T07:52:59;99360.81;;;8.37;71.80
78673;BME280;67988;60.086;30.354;2023-03-23T07:55:29;99366.53;;;8.52;71.19
78673;BME280;67988;60.086;30.354;2023-03-23T07:58:33;99368.38;;;8.61;70.23
78673;BME280;67988;60.086;30.354;2023-03-23T08:01:00;99370.16;;;8.79;69.60
78673;BME280;67988;60.086;30.354;2023-03-23T08:03:30;99367.69;;;8.78;68.91
78673;BME280;67988;60.086;30.354;2023-03-23T08:06:32;99353.41;;;8.79;68.34
78673;BME280;67988;60.086;30.354;2023-03-23T08:09:20;99373.53;;;8.81;67.87
78673;BME280;67988;60.086;30.354;2023-03-23T08:12:15;99363.91;;;8.71;67.89
78673;BME280;67988;60.086;30.354;2023-03-23T08:15:03;99365.97;;;8.67;67.38
78673;BME280;67988;60.086;30.354;2023-03-23T08:17:50;99368.63;;;8.67;67.19
78673;BME280;67988;60.086;30.354;2023-03-23T08:20:36;99354.69;;;8.65;67.32
78673;BME280;67988;60.086;30.354;2023-03-23T08:23:14;99369.91;;;8.63;67.09
78673;BME280;67988;60.086;30.354;2023-03-23T08:26:00;99366.69;;;8.69;66.71
78673;BME280;67988;60.086;30.354;2023-03-23T08:28:44;99345.19;;;8.63;66.73
78673;BME280;67988;60.086;30.354;2023-03-23T08:31:44;99358.88;;;8.68;66.34
78673;BME280;67988;60.086;30.354;2023-03-23T08:34:31;99378.44;;;8.67;65.72
78673;BME280;67988;60.086;30.354;2023-03-23T08:37:00;99364.88;;;8.60;65.67
78673;BME280;67988;60.086;30.354;2023-03-23T08:39:50;99335.84;;;8.59;65.60
78673;BME280;67988;60.086;30.354;2023-03-23T08:42:26;99347.44;;;8.77;65.15
78673;BME280;67988;60.086;30.354;2023-03-23T08:45:18;99340.72;;;8.82;64.55
78673;BME280;67988;60.086;30.354;2023-03-23T08:48:03;99346.88;;;8.83;64.64
78673;BME280;67988;60.086;30.354;2023-03-23T08:50:33;99315.78;;;8.56;64.18
78673;BME280;67988;60.086;30.354;2023-03-23T08:53:01;99346.38;;;9.07;63.69
78673;BME280;67988;60.086;30.354;2023-03-23T08:55:51;99310.41;;;8.85;63.39
78673;BME280;67988;60.086;30.354;2023-03-23T08:58:42;99349.19;;;8.96;63.32
78673;BME280;67988;60.086;30.354;2023-03-23T09:01:29;99353.38;;;9.08;63.43
78673;BME280;67988;60.086;30.354;2023-03-23T09:04:23;99364.97;;;9.07;63.36
78673;BME280;67988;60.086;30.354;2023-03-23T09:07:14;99358.81;;;9.06;63.02
78673;BME280;67988;60.086;30.354;2023-03-23T09:09:41;99347.97;;;9.00;63.56
78673;BME280;67988;60.086;30.354;2023-03-23T09:12:09;99369.28;;;9.17;63.23
78673;BME280;67988;60.086;30.354;2023-03-23T09:14:36;99344.72;;;9.15;62.68
78673;BME280;67988;60.086;30.354;2023-03-23T09:17:04;99363.22;;;9.35;62.23
78673;BME280;67988;60.086;30.354;2023-03-23T09:19:34;99363.88;;;9.46;61.89
78673;BME280;67988;60.086;30.354;2023-03-23T09:22:01;99370.53;;;9.13;61.93
78673;BME280;67988;60.086;30.354;2023-03-23T09:24:29;99369.97;;;9.19;62.27
78673;BME280;67988;60.086;30.354;2023-03-23T09:26:56;99374.41;;;9.29;62.01
78673;BME280;67988;60.086;30.354;2023-03-23T09:29:24;99370.50;;;9.23;61.37
78673;BME280;67988;60.086;30.354;2023-03-23T09:31:52;99383.75;;;9.42;61.38
78673;BME280;67988;60.086;30.354;2023-03-23T09:34:19;99363.75;;;9.48;61.23
78673;BME280;67988;60.086;30.354;2023-03-23T09:36:47;99374.81;;;9.43;60.99
78673;BME280;67988;60.086;30.354;2023-03-23T09:39:15;99368.78;;;9.41;61.05
78673;BME280;67988;60.086;30.354;2023-03-23T09:41:47;99376.03;;;9.49;60.89
78673;BME280;67988;60.086;30.354;2023-03-23T09:44:23;99370.78;;;9.66;60.83
78673;BME280;67988;60.086;30.354;2023-03-23T09:46:54;99373.94;;;9.80;60.18
78673;BME280;67988;60.086;30.354;2023-03-23T09:49:26;99376.22;;;10.02;60.18
78673;BME280;67988;60.086;30.354;2023-03-23T09:51:57;99364.63;;;9.93;59.60
78673;BME280;67988;60.086;30.354;2023-03-23T09:54:26;99359.28;;;10.03;59.44
78673;BME280;67988;60.086;30.354;2023-03-23T09:56:55;99378.09;;;9.92;59.75
78673;BME280;67988;60.086;30.354;2023-03-23T09:59:27;99377.63;;;9.96;59.02
78673;BME280;67988;60.086;30.354;2023-03-23T10:01:59;99371.16;;;10.08;58.63
78673;BME280;67988;60.086;30.354;2023-03-23T10:04:36;99368.16;;;10.12;58.22
78673;BME280;67988;60.086;30.354;2023-03-23T10:07:08;99368.47;;;10.36;57.24
78673;BME280;67988;60.086;30.354;2023-03-23T10:09:36;99372.13;;;10.53;57.27
78673;BME280;67988;60.086;30.354;2023-03-23T10:12:10;99386.00;;;10.82;56.65
78673;BME280;67988;60.086;30.354;2023-03-23T10:14:50;99371.59;;;10.67;55.75
78673;BME280;67988;60.086;30.354;2023-03-23T10:17:22;99369.63;;;10.51;55.83
78673;BME280;67988;60.086;30.354;2023-03-23T10:19:53;99346.00;;;10.30;55.98
78673;BME280;67988;60.086;30.354;2023-03-23T10:22:26;99368.13;;;10.21;56.44
78673;BME280;67988;60.086;30.354;2023-03-23T10:25:02;99378.09;;;10.09;56.49
78673;BME280;67988;60.086;30.354;2023-03-23T10:27:33;99371.78;;;10.20;56.33
78673;BME280;67988;60.086;30.354;2023-03-23T10:30:07;99375.44;;;10.09;56.58
78673;BME280;67988;60.086;30.354;2023-03-23T10:32:44;99382.25;;;10.22;56.71
78673;BME280;67988;60.086;30.354;2023-03-23T10:35:18;99383.97;;;10.13;57.05
78673;BME280;67988;60.086;30.354;2023-03-23T10:37:50;99366.13;;;9.78;58.61
78673;BME280;67988;60.086;30.354;2023-03-23T10:40:22;99369.22;;;9.37;59.92
78673;BME280;67988;60.086;30.354;2023-03-23T10:42:51;99371.25;;;9.15;60.61
78673;BME280;67988;60.086;30.354;2023-03-23T10:45:22;99357.00;;;9.07;60.95
78673;BME280;67988;60.086;30.354;2023-03-23T10:47:53;99369.00;;;9.20;60.84
78673;BME280;67988;60.086;30.354;2023-03-23T10:50:24;99365.50;;;9.20;60.74
78673;BME280;67988;60.086;30.354;2023-03-23T10:52:56;99363.28;;;9.15;60.63
78673;BME280;67988;60.086;30.354;2023-03-23T10:55:34;99360.47;;;9.17;60.50
78673;BME280;67988;60.086;30.354;2023-03-23T10:58:03;99375.06;;;9.40;60.09
78673;BME280;67988;60.086;30.354;2023-03-23T11:00:31;99371.47;;;9.69;59.15
78673;BME280;67988;60.086;30.354;2023-03-23T11:03:00;99365.72;;;10.00;57.98
78673;BME280;67988;60.086;30.354;2023-03-23T11:05:34;99372.00;;;9.99;57.65
78673;BME280;67988;60.086;30.354;2023-03-23T11:08:03;99390.72;;;9.80;58.16
78673;BME280;67988;60.086;30.354;2023-03-23T11:10:39;99376.41;;;9.91;58.16
78673;BME280;67988;60.086;30.354;2023-03-23T11:13:12;99387.63;;;9.48;58.66
78673;BME280;67988;60.086;30.354;2023-03-23T11:15:41;99384.19;;;9.38;59.22
78673;BME280;67988;60.086;30.354;2023-03-23T11:18:12;99384.59;;;9.33;59.69
78673;BME280;67988;60.086;30.354;2023-03-23T11:20:43;99381.56;;;9.18;59.87
78673;BME280;67988;60.086;30.354;2023-03-23T11:23:19;99379.91;;;9.08;59.96
78673;BME280;67988;60.086;30.354;2023-03-23T11:25:58;99382.34;;;9.38;59.17
78673;BME280;67988;60.086;30.354;2023-03-23T11:28:30;99376.13;;;9.57;58.67
78673;BME280;67988;60.086;30.354;2023-03-23T11:30:59;99368.88;;;9.59;58.53
78673;BME280;67988;60.086;30.354;2023-03-23T11:33:35;99368.28;;;9.65;58.19
78673;BME280;67988;60.086;30.354;2023-03-23T11:36:05;99360.66;;;9.80;57.98
78673;BME280;67988;60.086;30.354;2023-03-23T11:38:35;99356.63;;;10.03;57.68
78673;BME280;67988;60.086;30.354;2023-03-23T11:41:09;99349.16;;;10.16;57.14
78673;BME280;67988;60.086;30.354;2023-03-23T11:43:39;99336.84;;;10.33;56.79
78673;BME280;67988;60.086;30.354;2023-03-23T11:46:13;99340.50;;;10.67;55.60
78673;BME280;67988;60.086;30.354;2023-03-23T11:48:47;99345.56;;;11.22;54.30
78673;BME280;67988;60.086;30.354;2023-03-23T11:51:21;99328.28;;;11.60;51.80
78673;BME280;67988;60.086;30.354;2023-03-23T11:53:57;99332.44;;;11.88;50.22
78673;BME280;67988;60.086;30.354;2023-03-23T11:56:29;99340.78;;;11.93;48.81
78673;BME280;67988;60.086;30.354;2023-03-23T11:58:58;99348.28;;;11.98;48.83
78673;BME280;67988;60.086;30.354;2023-03-23T12:01:40;99332.53;;;12.45;47.06
78673;BME280;67988;60.086;30.354;2023-03-23T12:04:32;99339.91;;;12.67;47.04
78673;BME280;67988;60.086;30.354;2023-03-23T12:07:21;99319.19;;;13.10;45.07
78673;BME280;67988;60.086;30.354;2023-03-23T12:10:02;99329.91;;;13.73;43.54
78673;BME280;67988;60.086;30.354;2023-03-23T12:12:37;99331.81;;;13.95;43.20
78673;BME280;67988;60.086;30.354;2023-03-23T12:15:14;99327.19;;;15.40;40.16
78673;BME280;67988;60.086;30.354;2023-03-23T12:17:49;99324.41;;;17.13;36.74
78673;BME280;67988;60.086;30.354;2023-03-23T12:20:25;99313.47;;;18.45;33.54
78673;BME280;67988;60.086;30.354;2023-03-23T12:23:05;99326.66;;;20.04;31.12
78673;BME280;67988;60.086;30.354;2023-03-23T12:25:56;99301.53;;;18.67;31.74
78673;BME280;67988;60.086;30.354;2023-03-23T12:28:35;99280.75;;;18.41;31.63
78673;BME280;67988;60.086;30.354;2023-03-23T12:31:11;99322.03;;;19.53;30.70
78673;BME280;67988;60.086;30.354;2023-03-23T12:33:52;99321.56;;;19.70;30.32
78673;BME280;67988;60.086;30.354;2023-03-23T12:36:34;99322.22;;;19.58;30.19
78673;BME280;67988;60.086;30.354;2023-03-23T12:39:14;99331.38;;;19.31;29.72
78673;BME280;67988;60.086;30.354;2023-03-23T12:41:51;99334.06;;;19.38;29.64
78673;BME280;67988;60.086;30.354;2023-03-23T12:44:25;99329.13;;;18.75;30.43
78673;BME280;67988;60.086;30.354;2023-03-23T12:47:15;99349.28;;;17.84;31.85
78673;BME280;67988;60.086;30.354;2023-03-23T12:49:49;99298.50;;;16.36;34.36
78673;BME280;67988;60.086;30.354;2023-03-23T12:52:19;99349.41;;;15.78;35.96
78673;BME280;67988;60.086;30.354;2023-03-23T12:54:53;99334.16;;;15.12;37.47
78673;BME280;67988;60.086;30.354;2023-03-23T12:57:29;99310.41;;;14.26;38.86
78673;BME280;67988;60.086;30.354;2023-03-23T13:00:04;99360.84;;;14.06;39.32
78673;BME280;67988;60.086;30.354;2023-03-23T13:02:41;99359.72;;;13.93;39.93
78673;BME280;67988;60.086;30.354;2023-03-23T13:05:24;99353.22;;;13.40;41.08
78673;BME280;67988;60.086;30.354;2023-03-23T13:07:56;99351.25;;;13.18;41.81
78673;BME280;67988;60.086;30.354;2023-03-23T13:10:28;99349.41;;;13.10;41.97
78673;BME280;67988;60.086;30.354;2023-03-23T13:12:58;99345.41;;;12.90;42.74
78673;BME280;67988;60.086;30.354;2023-03-23T13:15:33;99340.91;;;12.58;43.42
78673;BME280;67988;60.086;30.354;2023-03-23T13:18:10;99344.75;;;12.64;43.33
78673;BME280;67988;60.086;30.354;2023-03-23T13:20:54;99335.91;;;12.71;43.20
78673;BME280;67988;60.086;30.354;2023-03-23T13:23:25;99343.41;;;13.08;42.59
78673;BME280;67988;60.086;30.354;2023-03-23T13:25:56;99343.41;;;13.08;42.83
78673;BME280;67988;60.086;30.354;2023-03-23T13:28:28;99321.00;;;13.80;41.00
78673;BME280;67988;60.086;30.354;2023-03-23T13:31:00;99347.59;;;14.13;40.22
78673;BME280;67988;60.086;30.354;2023-03-23T13:33:32;99348.63;;;14.88;39.00